sensor_id;sensor_type;location;lat;lon;timestamp;pressure;altitude;pressure_sealevel;temperature;humidity
36502;BME280;25393;46.108;3.390;2022-09-21T00:01:22;98506.84;;;11.54;72.90
36502;BME280;25393;46.108;3.390;2022-09-21T00:03:56;98510.69;;;11.51;72.94
36502;BME280;25393;46.108;3.390;2022-09-21T00:06:25;98512.34;;;11.52;73.24
36502;BME280;25393;46.108;3.390;2022-09-21T00:08:54;98514.31;;;11.50;73.58
36502;BME280;25393;46.108;3.390;2022-09-21T00:11:23;98508.84;;;11.44;73.59
36502;BME280;25393;46.108;3.390;2022-09-21T00:13:55;98475.47;;;11.25;74.14
36502;BME280;25393;46.108;3.390;2022-09-21T00:16:23;98490.22;;;11.28;74.18
36502;BME280;25393;46.108;3.390;2022-09-21T00:18:49;98500.38;;;11.32;73.56
36502;BME280;25393;46.108;3.390;2022-09-21T00:21:16;98489.59;;;11.26;73.92
36502;BME280;25393;46.108;3.390;2022-09-21T00:23:43;98505.81;;;11.31;73.47
36502;BME280;25393;46.108;3.390;2022-09-21T00:26:21;98516.75;;;11.20;73.93
36502;BME280;25393;46.108;3.390;2022-09-21T00:28:57;98497.28;;;11.03;73.97
36502;BME280;25393;46.108;3.390;2022-09-21T00:31:25;98509.06;;;11.00;74.33
36502;BME280;25393;46.108;3.390;2022-09-21T00:33:52;98489.44;;;10.85;74.31
36502;BME280;25393;46.108;3.390;2022-09-21T00:36:21;98508.19;;;10.92;74.97
36502;BME280;25393;46.108;3.390;2022-09-21T00:38:53;98512.13;;;10.88;74.91
36502;BME280;25393;46.108;3.390;2022-09-21T00:41:20;98513.66;;;10.90;75.04
36502;BME280;25393;46.108;3.390;2022-09-21T00:46:35;98498.34;;;10.76;75.47
36502;BME280;25393;46.108;3.390;2022-09-21T00:49:02;98492.53;;;10.73;75.93
36502;BME280;25393;46.108;3.390;2022-09-21T00:51:29;98516.53;;;10.71;76.36
36502;BME280;25393;46.108;3.390;2022-09-21T00:54:02;98509.09;;;10.75;76.67
36502;BME280;25393;46.108;3.390;2022-09-21T00:56:30;98504.13;;;10.72;77.58
36502;BME280;25393;46.108;3.390;2022-09-21T00:58:56;98510.00;;;10.83;78.49
36502;BME280;25393;46.108;3.390;2022-09-21T01:01:23;98480.78;;;10.75;78.90
36502;BME280;25393;46.108;3.390;2022-09-21T01:03:51;98490.72;;;10.81;78.66
36502;BME280;25393;46.108;3.390;2022-09-21T01:06:20;98505.91;;;10.97;78.86
36502;BME280;25393;46.108;3.390;2022-09-21T01:08:49;98515.53;;;11.06;79.03
36502;BME280;25393;46.108;3.390;2022-09-21T01:17:03;98505.94;;;11.13;78.61
36502;BME280;25393;46.108;3.390;2022-09-21T01:25:37;98505.63;;;11.16;78.46
36502;BME280;25393;46.108;3.390;2022-09-21T01:30:53;98493.66;;;11.04;78.09
36502;BME280;25393;46.108;3.390;2022-09-21T01:33:25;98500.13;;;11.10;77.87
36502;BME280;25393;46.108;3.390;2022-09-21T01:35:59;98503.91;;;10.99;78.44
36502;BME280;25393;46.108;3.390;2022-09-21T01:38:31;98504.88;;;10.98;78.47
36502;BME280;25393;46.108;3.390;2022-09-21T01:41:03;98501.09;;;11.00;78.17
36502;BME280;25393;46.108;3.390;2022-09-21T01:43:41;98491.28;;;10.93;77.99
36502;BME280;25393;46.108;3.390;2022-09-21T01:46:12;98498.91;;;10.96;78.35
36502;BME280;25393;46.108;3.390;2022-09-21T01:48:45;98507.84;;;10.95;78.08
36502;BME280;25393;46.108;3.390;2022-09-21T01:51:15;98498.88;;;10.88;78.18
36502;BME280;25393;46.108;3.390;2022-09-21T01:53:53;98489.88;;;10.73;78.05
36502;BME280;25393;46.108;3.390;2022-09-21T01:56:25;98504.19;;;10.88;78.41
36502;BME280;25393;46.108;3.390;2022-09-21T02:01:31;98492.41;;;10.82;79.08
36502;BME280;25393;46.108;3.390;2022-09-21T02:04:03;98493.19;;;10.75;78.42
36502;BME280;25393;46.108;3.390;2022-09-21T02:06:31;98495.34;;;10.71;77.75
36502;BME280;25393;46.108;3.390;2022-09-21T02:08:58;98468.44;;;10.58;76.61
36502;BME280;25393;46.108;3.390;2022-09-21T02:11:25;98464.91;;;10.49;76.43
36502;BME280;25393;46.108;3.390;2022-09-21T02:13:53;98491.13;;;10.61;76.08
36502;BME280;25393;46.108;3.390;2022-09-21T02:16:33;98496.38;;;10.44;76.49
36502;BME280;25393;46.108;3.390;2022-09-21T02:19:14;98492.75;;;10.28;76.85
36502;BME280;25393;46.108;3.390;2022-09-21T02:22:06;98488.16;;;10.12;76.55
36502;BME280;25393;46.108;3.390;2022-09-21T02:24:44;98493.78;;;10.09;76.91
36502;BME280;25393;46.108;3.390;2022-09-21T02:27:33;98491.97;;;10.10;77.26
36502;BME280;25393;46.108;3.390;2022-09-21T02:32:53;98497.09;;;10.11;81.03
36502;BME280;25393;46.108;3.390;2022-09-21T02:38:10;98481.53;;;10.08;82.06
36502;BME280;25393;46.108;3.390;2022-09-21T02:41:10;98482.66;;;10.06;82.16
36502;BME280;25393;46.108;3.390;2022-09-21T02:43:48;98490.66;;;10.14;82.02
36502;BME280;25393;46.108;3.390;2022-09-21T02:46:23;98495.13;;;10.13;81.30
36502;BME280;25393;46.108;3.390;2022-09-21T02:48:57;98480.78;;;9.98;80.60
36502;BME280;25393;46.108;3.390;2022-09-21T02:51:35;98487.59;;;10.00;79.33
36502;BME280;25393;46.108;3.390;2022-09-21T02:54:05;98494.66;;;9.92;78.48
36502;BME280;25393;46.108;3.390;2022-09-21T02:56:34;98477.66;;;9.59;78.79
36502;BME280;25393;46.108;3.390;2022-09-21T02:59:03;98492.59;;;9.68;78.83
36502;BME280;25393;46.108;3.390;2022-09-21T03:01:31;98494.59;;;9.66;78.96
36502;BME280;25393;46.108;3.390;2022-09-21T03:03:59;98491.09;;;9.66;77.28
36502;BME280;25393;46.108;3.390;2022-09-21T03:06:26;98491.34;;;9.54;76.56
36502;BME280;25393;46.108;3.390;2022-09-21T03:08:53;98469.94;;;9.30;76.81
36502;BME280;25393;46.108;3.390;2022-09-21T03:11:19;98485.38;;;9.35;76.97
36502;BME280;25393;46.108;3.390;2022-09-21T03:13:46;98485.47;;;9.16;76.75
36502;BME280;25393;46.108;3.390;2022-09-21T03:16:12;98498.47;;;9.09;77.36
36502;BME280;25393;46.108;3.390;2022-09-21T03:18:39;98498.63;;;9.08;77.52
36502;BME280;25393;46.108;3.390;2022-09-21T03:21:07;98496.72;;;9.00;77.68
36502;BME280;25393;46.108;3.390;2022-09-21T03:23:34;98498.53;;;8.99;77.20
36502;BME280;25393;46.108;3.390;2022-09-21T03:26:01;98473.19;;;8.79;78.49
36502;BME280;25393;46.108;3.390;2022-09-21T03:28:27;98498.84;;;8.96;79.55
36502;BME280;25393;46.108;3.390;2022-09-21T03:30:54;98502.31;;;8.97;79.11
36502;BME280;25393;46.108;3.390;2022-09-21T03:33:21;98505.41;;;8.92;78.56
36502;BME280;25393;46.108;3.390;2022-09-21T03:35:48;98496.88;;;8.98;77.88
36502;BME280;25393;46.108;3.390;2022-09-21T03:38:14;98503.00;;;8.99;78.77
36502;BME280;25393;46.108;3.390;2022-09-21T03:40:45;98490.50;;;8.91;78.38
36502;BME280;25393;46.108;3.390;2022-09-21T03:43:12;98494.94;;;8.91;78.24
36502;BME280;25393;46.108;3.390;2022-09-21T03:45:39;98502.59;;;8.94;78.45
36502;BME280;25393;46.108;3.390;2022-09-21T03:48:08;98500.84;;;8.85;79.00
36502;BME280;25393;46.108;3.390;2022-09-21T03:50:36;98489.19;;;8.78;79.33
36502;BME280;25393;46.108;3.390;2022-09-21T03:53:03;98469.00;;;8.49;79.36
36502;BME280;25393;46.108;3.390;2022-09-21T03:55:30;98464.88;;;8.37;79.95
36502;BME280;25393;46.108;3.390;2022-09-21T03:57:58;98500.72;;;8.49;80.03
36502;BME280;25393;46.108;3.390;2022-09-21T04:00:25;98490.19;;;8.30;79.10
36502;BME280;25393;46.108;3.390;2022-09-21T04:02:52;98490.06;;;8.32;79.61
36502;BME280;25393;46.108;3.390;2022-09-21T04:05:19;98507.25;;;8.45;80.36
36502;BME280;25393;46.108;3.390;2022-09-21T04:07:46;98491.28;;;8.28;79.72
36502;BME280;25393;46.108;3.390;2022-09-21T04:10:15;98517.44;;;8.40;79.70
36502;BME280;25393;46.108;3.390;2022-09-21T04:12:43;98517.16;;;8.43;79.47
36502;BME280;25393;46.108;3.390;2022-09-21T04:15:12;98525.06;;;8.34;79.72
36502;BME280;25393;46.108;3.390;2022-09-21T04:17:39;98516.06;;;8.36;79.94
36502;BME280;25393;46.108;3.390;2022-09-21T04:20:07;98509.94;;;8.26;79.70
36502;BME280;25393;46.108;3.390;2022-09-21T04:22:34;98519.78;;;8.34;79.89
36502;BME280;25393;46.108;3.390;2022-09-21T04:25:09;98516.75;;;8.29;79.23
36502;BME280;25393;46.108;3.390;2022-09-21T04:27:36;98492.56;;;8.14;78.50
36502;BME280;25393;46.108;3.390;2022-09-21T04:30:03;98504.69;;;8.07;78.60
36502;BME280;25393;46.108;3.390;2022-09-21T04:32:30;98516.50;;;8.13;77.95
36502;BME280;25393;46.108;3.390;2022-09-21T04:34:57;98532.34;;;8.13;78.36
36502;BME280;25393;46.108;3.390;2022-09-21T04:37:23;98524.56;;;8.11;78.53
36502;BME280;25393;46.108;3.390;2022-09-21T04:39:50;98504.44;;;7.91;79.03
36502;BME280;25393;46.108;3.390;2022-09-21T04:42:16;98536.66;;;8.04;79.43
36502;BME280;25393;46.108;3.390;2022-09-21T04:44:43;98509.44;;;7.94;80.51
36502;BME280;25393;46.108;3.390;2022-09-21T04:47:10;98528.56;;;8.15;81.03
36502;BME280;25393;46.108;3.390;2022-09-21T04:49:37;98522.31;;;8.07;80.58
36502;BME280;25393;46.108;3.390;2022-09-21T04:52:04;98509.69;;;8.00;81.25
36502;BME280;25393;46.108;3.390;2022-09-21T04:54:31;98499.97;;;8.01;80.65
36502;BME280;25393;46.108;3.390;2022-09-21T04:56:57;98503.72;;;8.08;80.21
36502;BME280;25393;46.108;3.390;2022-09-21T04:59:24;98510.78;;;8.17;80.71
36502;BME280;25393;46.108;3.390;2022-09-21T05:01:50;98509.81;;;8.18;81.32
36502;BME280;25393;46.108;3.390;2022-09-21T05:04:17;98506.75;;;8.13;82.66
36502;BME280;25393;46.108;3.390;2022-09-21T05:06:44;98502.47;;;8.12;82.89
36502;BME280;25393;46.108;3.390;2022-09-21T05:09:10;98515.94;;;8.09;83.03
36502;BME280;25393;46.108;3.390;2022-09-21T05:11:55;98514.44;;;7.97;81.61
36502;BME280;25393;46.108;3.390;2022-09-21T05:14:21;98533.88;;;8.06;81.55
36502;BME280;25393;46.108;3.390;2022-09-21T05:16:48;98514.97;;;8.00;82.19
36502;BME280;25393;46.108;3.390;2022-09-21T05:19:16;98503.75;;;7.79;81.59
36502;BME280;25393;46.108;3.390;2022-09-21T05:21:42;98502.63;;;7.82;81.92
36502;BME280;25393;46.108;3.390;2022-09-21T05:24:09;98526.50;;;7.99;81.34
36502;BME280;25393;46.108;3.390;2022-09-21T05:26:36;98502.91;;;7.79;81.86
36502;BME280;25393;46.108;3.390;2022-09-21T05:29:03;98514.84;;;7.83;82.24
36502;BME280;25393;46.108;3.390;2022-09-21T05:31:53;98536.66;;;7.94;81.33
36502;BME280;25393;46.108;3.390;2022-09-21T05:34:27;98534.97;;;8.03;79.99
36502;BME280;25393;46.108;3.390;2022-09-21T05:39:46;98534.44;;;8.09;79.67
36502;BME280;25393;46.108;3.390;2022-09-21T05:42:13;98525.25;;;8.03;80.22
36502;BME280;25393;46.108;3.390;2022-09-21T05:44:40;98505.25;;;7.82;80.98
36502;BME280;25393;46.108;3.390;2022-09-21T05:52:33;98538.34;;;7.76;83.53
36502;BME280;25393;46.108;3.390;2022-09-21T06:01:14;98546.94;;;7.78;83.34
36502;BME280;25393;46.108;3.390;2022-09-21T06:03:45;98551.94;;;7.81;83.42
36502;BME280;25393;46.108;3.390;2022-09-21T06:06:19;98550.13;;;7.82;84.64
36502;BME280;25393;46.108;3.390;2022-09-21T06:08:45;98543.75;;;7.75;84.30
36502;BME280;25393;46.108;3.390;2022-09-21T06:11:12;98541.53;;;7.70;84.91
36502;BME280;25393;46.108;3.390;2022-09-21T06:13:39;98558.31;;;7.88;85.18
36502;BME280;25393;46.108;3.390;2022-09-21T06:16:09;98558.47;;;7.96;86.40
36502;BME280;25393;46.108;3.390;2022-09-21T06:18:39;98557.47;;;8.07;88.60
36502;BME280;25393;46.108;3.390;2022-09-21T06:21:07;98557.22;;;8.20;90.88
36502;BME280;25393;46.108;3.390;2022-09-21T06:23:34;98562.88;;;8.34;92.05
36502;BME280;25393;46.108;3.390;2022-09-21T06:26:01;98532.44;;;8.30;93.19
36502;BME280;25393;46.108;3.390;2022-09-21T06:28:27;98525.38;;;8.40;93.59
36502;BME280;25393;46.108;3.390;2022-09-21T06:30:56;98551.41;;;8.63;94.66
36502;BME280;25393;46.108;3.390;2022-09-21T06:33:23;98522.69;;;8.50;95.30
36502;BME280;25393;46.108;3.390;2022-09-21T06:35:52;98542.88;;;8.78;95.69
36502;BME280;25393;46.108;3.390;2022-09-21T06:38:19;98545.91;;;8.83;95.61
36502;BME280;25393;46.108;3.390;2022-09-21T06:40:46;98537.16;;;8.83;96.28
36502;BME280;25393;46.108;3.390;2022-09-21T06:43:13;98519.78;;;8.80;97.30
36502;BME280;25393;46.108;3.390;2022-09-21T06:45:39;98545.28;;;8.99;97.28
36502;BME280;25393;46.108;3.390;2022-09-21T06:48:06;98548.72;;;9.09;97.19
36502;BME280;25393;46.108;3.390;2022-09-21T06:50:32;98547.00;;;9.18;97.06
36502;BME280;25393;46.108;3.390;2022-09-21T06:53:00;98520.47;;;9.10;96.64
36502;BME280;25393;46.108;3.390;2022-09-21T06:55:26;98521.66;;;9.15;96.76
36502;BME280;25393;46.108;3.390;2022-09-21T06:58:01;98517.38;;;9.14;96.60
36502;BME280;25393;46.108;3.390;2022-09-21T07:00:29;98503.03;;;9.17;96.33
36502;BME280;25393;46.108;3.390;2022-09-21T07:02:59;98517.19;;;9.25;96.41
36502;BME280;25393;46.108;3.390;2022-09-21T07:05:26;98540.78;;;9.54;96.48
36502;BME280;25393;46.108;3.390;2022-09-21T07:07:57;98540.41;;;9.67;96.29
36502;BME280;25393;46.108;3.390;2022-09-21T07:10:24;98516.13;;;9.71;94.43
36502;BME280;25393;46.108;3.390;2022-09-21T07:12:51;98524.00;;;9.98;93.31
36502;BME280;25393;46.108;3.390;2022-09-21T07:15:18;98545.16;;;10.34;92.10
36502;BME280;25393;46.108;3.390;2022-09-21T07:17:46;98519.97;;;10.38;90.55
36502;BME280;25393;46.108;3.390;2022-09-21T07:20:17;98542.28;;;10.79;89.32
36502;BME280;25393;46.108;3.390;2022-09-21T07:22:44;98543.38;;;11.02;86.95
36502;BME280;25393;46.108;3.390;2022-09-21T07:25:11;98546.28;;;11.25;85.43
36502;BME280;25393;46.108;3.390;2022-09-21T07:27:37;98537.41;;;11.50;84.91
36502;BME280;25393;46.108;3.390;2022-09-21T07:30:05;98523.38;;;11.74;82.20
36502;BME280;25393;46.108;3.390;2022-09-21T07:32:32;98521.72;;;12.13;80.76
36502;BME280;25393;46.108;3.390;2022-09-21T07:34:59;98523.63;;;12.60;79.13
36502;BME280;25393;46.108;3.390;2022-09-21T07:37:27;98507.41;;;12.93;76.57
36502;BME280;25393;46.108;3.390;2022-09-21T07:39:54;98523.66;;;13.45;74.20
36502;BME280;25393;46.108;3.390;2022-09-21T07:42:21;98521.78;;;13.77;72.05
36502;BME280;25393;46.108;3.390;2022-09-21T07:44:48;98521.25;;;14.04;69.86
36502;BME280;25393;46.108;3.390;2022-09-21T07:47:16;98524.69;;;14.35;68.60
36502;BME280;25393;46.108;3.390;2022-09-21T07:49:43;98524.44;;;14.60;67.60
36502;BME280;25393;46.108;3.390;2022-09-21T07:52:09;98493.09;;;14.76;67.12
36502;BME280;25393;46.108;3.390;2022-09-21T07:54:36;98493.16;;;15.12;64.48
36502;BME280;25393;46.108;3.390;2022-09-21T07:57:03;98508.38;;;15.47;63.24
36502;BME280;25393;46.108;3.390;2022-09-21T07:59:49;98502.25;;;15.89;61.15
36502;BME280;25393;46.108;3.390;2022-09-21T08:02:15;98505.28;;;16.29;60.64
36502;BME280;25393;46.108;3.390;2022-09-21T08:04:42;98493.03;;;16.69;58.43
36502;BME280;25393;46.108;3.390;2022-09-21T08:07:09;98515.72;;;17.14;56.33
36502;BME280;25393;46.108;3.390;2022-09-21T08:09:35;98490.88;;;17.33;55.16
36502;BME280;25393;46.108;3.390;2022-09-21T08:12:02;98511.03;;;17.76;55.07
36502;BME280;25393;46.108;3.390;2022-09-21T08:14:32;98500.56;;;18.01;53.74
36502;BME280;25393;46.108;3.390;2022-09-21T08:17:00;98479.69;;;18.23;53.17
36502;BME280;25393;46.108;3.390;2022-09-21T08:19:27;98498.09;;;18.52;51.66
36502;BME280;25393;46.108;3.390;2022-09-21T08:21:53;98474.09;;;18.77;50.64
36502;BME280;25393;46.108;3.390;2022-09-21T08:24:22;98481.25;;;19.03;49.90
36502;BME280;25393;46.108;3.390;2022-09-21T08:26:50;98488.13;;;19.43;49.83
36502;BME280;25393;46.108;3.390;2022-09-21T08:29:17;98483.91;;;19.60;48.76
36502;BME280;25393;46.108;3.390;2022-09-21T08:31:44;98482.72;;;19.87;48.45
36502;BME280;25393;46.108;3.390;2022-09-21T08:34:12;98480.78;;;20.26;47.62
36502;BME280;25393;46.108;3.390;2022-09-21T08:36:39;98479.56;;;20.71;47.03
36502;BME280;25393;46.108;3.390;2022-09-21T08:39:07;98468.34;;;20.92;45.47
36502;BME280;25393;46.108;3.390;2022-09-21T08:41:51;98475.63;;;21.28;45.07
36502;BME280;25393;46.108;3.390;2022-09-21T08:44:26;98462.38;;;21.27;43.97
36502;BME280;25393;46.108;3.390;2022-09-21T08:47:05;98484.50;;;21.47;44.33
36502;BME280;25393;46.108;3.390;2022-09-21T08:49:37;98461.38;;;21.69;43.78
36502;BME280;25393;46.108;3.390;2022-09-21T08:52:11;98469.03;;;22.02;42.51
36502;BME280;25393;46.108;3.390;2022-09-21T08:54:53;98469.38;;;22.06;42.88
36502;BME280;25393;46.108;3.390;2022-09-21T08:57:26;98456.59;;;22.13;42.39
36502;BME280;25393;46.108;3.390;2022-09-21T08:59:54;98452.38;;;22.28;41.82
36502;BME280;25393;46.108;3.390;2022-09-21T09:14:45;98455.22;;;23.71;40.05
36502;BME280;25393;46.108;3.390;2022-09-21T09:20:06;98462.09;;;23.51;38.74
36502;BME280;25393;46.108;3.390;2022-09-21T09:22:40;98428.25;;;23.36;39.11
36502;BME280;25393;46.108;3.390;2022-09-21T09:25:31;98463.34;;;23.71;38.90
36502;BME280;25393;46.108;3.390;2022-09-21T09:28:09;98457.69;;;23.89;39.09
36502;BME280;25393;46.108;3.390;2022-09-21T09:30:41;98439.56;;;23.73;38.31
36502;BME280;25393;46.108;3.390;2022-09-21T09:33:30;98440.16;;;23.92;39.57
36502;BME280;25393;46.108;3.390;2022-09-21T09:36:04;98446.34;;;24.38;38.13
36502;BME280;25393;46.108;3.390;2022-09-21T09:38:32;98448.06;;;24.82;37.35
36502;BME280;25393;46.108;3.390;2022-09-21T09:41:32;98445.16;;;25.05;37.25
36502;BME280;25393;46.108;3.390;2022-09-21T09:46:52;98437.81;;;25.22;36.79
36502;BME280;25393;46.108;3.390;2022-09-21T09:52:16;98403.97;;;25.30;36.91
36502;BME280;25393;46.108;3.390;2022-09-21T09:54:43;98413.50;;;25.32;36.50
36502;BME280;25393;46.108;3.390;2022-09-21T09:57:10;98420.25;;;25.52;35.56
36502;BME280;25393;46.108;3.390;2022-09-21T09:59:51;98430.75;;;25.48;34.93
36502;BME280;25393;46.108;3.390;2022-09-21T10:02:23;98428.25;;;24.98;35.67
36502;BME280;25393;46.108;3.390;2022-09-21T10:12:52;98424.16;;;26.56;34.76
36502;BME280;25393;46.108;3.390;2022-09-21T10:15:20;98419.78;;;26.55;34.00
36502;BME280;25393;46.108;3.390;2022-09-21T10:17:58;98420.09;;;26.59;33.05
36502;BME280;25393;46.108;3.390;2022-09-21T10:20:27;98406.84;;;25.99;32.44
36502;BME280;25393;46.108;3.390;2022-09-21T10:22:58;98410.59;;;25.93;33.66
36502;BME280;25393;46.108;3.390;2022-09-21T10:25:26;98388.50;;;25.52;34.60
36502;BME280;25393;46.108;3.390;2022-09-21T10:27:54;98413.72;;;26.38;33.53
36502;BME280;25393;46.108;3.390;2022-09-21T10:30:33;98414.47;;;26.33;33.25
36502;BME280;25393;46.108;3.390;2022-09-21T10:33:00;98415.00;;;26.30;32.34
36502;BME280;25393;46.108;3.390;2022-09-21T10:35:27;98396.66;;;25.84;33.24
36502;BME280;25393;46.108;3.390;2022-09-21T10:38:09;98412.44;;;24.90;32.41
36502;BME280;25393;46.108;3.390;2022-09-21T10:40:38;98380.03;;;24.40;34.96
36502;BME280;25393;46.108;3.390;2022-09-21T10:43:21;98400.34;;;24.81;34.51
36502;BME280;25393;46.108;3.390;2022-09-21T10:45:54;98406.59;;;25.47;33.68
36502;BME280;25393;46.108;3.390;2022-09-21T10:48:25;98401.66;;;25.97;33.31
36502;BME280;25393;46.108;3.390;2022-09-21T10:50:54;98384.06;;;26.00;33.23
36502;BME280;25393;46.108;3.390;2022-09-21T10:53:26;98403.72;;;26.49;32.35
36502;BME280;25393;46.108;3.390;2022-09-21T10:56:15;98390.50;;;26.67;30.83
36502;BME280;25393;46.108;3.390;2022-09-21T11:01:47;98398.53;;;26.84;33.14
36502;BME280;25393;46.108;3.390;2022-09-21T11:04:21;98387.13;;;26.87;32.25
36502;BME280;25393;46.108;3.390;2022-09-21T11:06:57;98387.63;;;27.76;30.97
36502;BME280;25393;46.108;3.390;2022-09-21T11:09:38;98371.06;;;27.83;30.14
36502;BME280;25393;46.108;3.390;2022-09-21T11:12:31;98373.53;;;28.25;29.79
36502;BME280;25393;46.108;3.390;2022-09-21T11:18:12;98349.53;;;27.76;28.19
36502;BME280;25393;46.108;3.390;2022-09-21T11:20:49;98371.84;;;27.63;27.57
36502;BME280;25393;46.108;3.390;2022-09-21T11:42:51;98346.44;;;28.54;29.22
36502;BME280;25393;46.108;3.390;2022-09-21T11:45:45;98370.97;;;27.43;27.72
36502;BME280;25393;46.108;3.390;2022-09-21T11:51:21;98347.84;;;28.51;30.49
36502;BME280;25393;46.108;3.390;2022-09-21T11:57:03;98358.28;;;29.08;29.14
36502;BME280;25393;46.108;3.390;2022-09-21T11:59:58;98350.28;;;29.71;28.46
36502;BME280;25393;46.108;3.390;2022-09-21T12:10:42;98349.78;;;28.31;27.69
36502;BME280;25393;46.108;3.390;2022-09-21T12:18:29;98343.78;;;28.34;29.75
36502;BME280;25393;46.108;3.390;2022-09-21T12:26:03;98331.81;;;29.58;27.48
36502;BME280;25393;46.108;3.390;2022-09-21T12:28:38;98335.94;;;29.01;25.71
36502;BME280;25393;46.108;3.390;2022-09-21T12:31:42;98327.09;;;28.50;25.98
36502;BME280;25393;46.108;3.390;2022-09-21T12:34:15;98337.72;;;27.15;27.59
36502;BME280;25393;46.108;3.390;2022-09-21T12:40:04;98346.03;;;26.37;31.08
36502;BME280;25393;46.108;3.390;2022-09-21T12:42:34;98340.44;;;27.30;29.51
36502;BME280;25393;46.108;3.390;2022-09-21T12:45:20;98333.47;;;27.70;27.27
36502;BME280;25393;46.108;3.390;2022-09-21T12:50:36;98310.88;;;28.94;27.13
36502;BME280;25393;46.108;3.390;2022-09-21T12:53:05;98329.19;;;29.43;26.79
36502;BME280;25393;46.108;3.390;2022-09-21T13:00:59;98330.09;;;28.64;28.03
36502;BME280;25393;46.108;3.390;2022-09-21T13:09:11;98316.06;;;30.12;26.49
36502;BME280;25393;46.108;3.390;2022-09-21T13:12:01;98320.69;;;30.41;25.66
36502;BME280;25393;46.108;3.390;2022-09-21T13:14:35;98303.44;;;30.69;25.07
36502;BME280;25393;46.108;3.390;2022-09-21T13:17:20;98312.63;;;30.78;24.46
36502;BME280;25393;46.108;3.390;2022-09-21T13:23:01;98301.06;;;30.34;27.39
36502;BME280;25393;46.108;3.390;2022-09-21T13:25:29;98309.75;;;30.41;25.63
36502;BME280;25393;46.108;3.390;2022-09-21T13:30:46;98298.00;;;30.88;25.01
36502;BME280;25393;46.108;3.390;2022-09-21T13:46:46;98299.38;;;28.38;27.53
36502;BME280;25393;46.108;3.390;2022-09-21T13:52:04;98292.81;;;29.03;25.57
36502;BME280;25393;46.108;3.390;2022-09-21T13:54:45;98289.06;;;29.38;25.42
36502;BME280;25393;46.108;3.390;2022-09-21T14:02:57;98303.94;;;26.96;26.68
36502;BME280;25393;46.108;3.390;2022-09-21T14:05:37;98304.50;;;26.41;26.33
36502;BME280;25393;46.108;3.390;2022-09-21T14:13:36;98292.97;;;25.82;25.07
36502;BME280;25393;46.108;3.390;2022-09-21T14:18:55;98297.38;;;25.29;28.44
36502;BME280;25393;46.108;3.390;2022-09-21T14:21:22;98293.97;;;25.44;26.52
36502;BME280;25393;46.108;3.390;2022-09-21T14:29:35;98293.44;;;25.74;27.28
36502;BME280;25393;46.108;3.390;2022-09-21T14:32:13;98282.97;;;25.88;26.40
36502;BME280;25393;46.108;3.390;2022-09-21T14:34:44;98278.03;;;26.21;26.07
36502;BME280;25393;46.108;3.390;2022-09-21T14:39:53;98265.34;;;26.37;25.01
36502;BME280;25393;46.108;3.390;2022-09-21T14:42:26;98290.09;;;26.41;26.87
36502;BME280;25393;46.108;3.390;2022-09-21T14:44:58;98278.56;;;26.18;26.38
36502;BME280;25393;46.108;3.390;2022-09-21T14:47:48;98278.69;;;26.44;25.90
36502;BME280;25393;46.108;3.390;2022-09-21T14:53:17;98278.34;;;26.92;26.86
36502;BME280;25393;46.108;3.390;2022-09-21T14:56:08;98272.41;;;27.00;26.03
36502;BME280;25393;46.108;3.390;2022-09-21T15:02:40;98273.19;;;26.91;24.98
36502;BME280;25393;46.108;3.390;2022-09-21T15:07:45;98283.25;;;24.79;27.42
36502;BME280;25393;46.108;3.390;2022-09-21T15:10:44;98269.84;;;24.24;27.11
36502;BME280;25393;46.108;3.390;2022-09-21T15:16:33;98284.69;;;23.21;28.88
36502;BME280;25393;46.108;3.390;2022-09-21T15:21:47;98285.63;;;22.99;31.63
36502;BME280;25393;46.108;3.390;2022-09-21T15:26:52;98276.31;;;23.06;28.55
36502;BME280;25393;46.108;3.390;2022-09-21T15:29:28;98276.44;;;23.28;29.65
36502;BME280;25393;46.108;3.390;2022-09-21T15:31:57;98276.81;;;22.75;29.51
36502;BME280;25393;46.108;3.390;2022-09-21T15:34:25;98267.97;;;22.28;30.50
36502;BME280;25393;46.108;3.390;2022-09-21T15:36:52;98274.09;;;21.77;31.77
36502;BME280;25393;46.108;3.390;2022-09-21T15:42:00;98272.69;;;21.63;34.12
36502;BME280;25393;46.108;3.390;2022-09-21T15:44:34;98255.69;;;21.62;33.84
36502;BME280;25393;46.108;3.390;2022-09-21T15:47:10;98283.03;;;21.77;33.42
36502;BME280;25393;46.108;3.390;2022-09-21T15:49:39;98288.63;;;21.64;33.30
36502;BME280;25393;46.108;3.390;2022-09-21T15:55:24;98288.63;;;21.11;33.67
36502;BME280;25393;46.108;3.390;2022-09-21T15:57:53;98284.31;;;21.10;34.01
36502;BME280;25393;46.108;3.390;2022-09-21T16:00:31;98286.16;;;20.80;33.58
36502;BME280;25393;46.108;3.390;2022-09-21T16:03:06;98269.63;;;20.28;35.24
36502;BME280;25393;46.108;3.390;2022-09-21T16:05:49;98285.09;;;20.33;35.38
36502;BME280;25393;46.108;3.390;2022-09-21T16:08:34;98289.50;;;20.27;35.66
36502;BME280;25393;46.108;3.390;2022-09-21T16:11:32;98295.88;;;20.33;36.09
36502;BME280;25393;46.108;3.390;2022-09-21T16:22:43;98290.25;;;20.34;36.59
36502;BME280;25393;46.108;3.390;2022-09-21T16:25:22;98288.28;;;20.05;36.09
36502;BME280;25393;46.108;3.390;2022-09-21T16:27:58;98296.63;;;19.97;36.57
36502;BME280;25393;46.108;3.390;2022-09-21T16:30:41;98296.66;;;19.48;36.46
36502;BME280;25393;46.108;3.390;2022-09-21T16:38:43;98304.88;;;18.90;37.89
36502;BME280;25393;46.108;3.390;2022-09-21T16:41:10;98299.38;;;18.72;39.00
36502;BME280;25393;46.108;3.390;2022-09-21T16:43:36;98295.44;;;18.81;39.83
36502;BME280;25393;46.108;3.390;2022-09-21T16:46:05;98307.66;;;19.08;40.90
36502;BME280;25393;46.108;3.390;2022-09-21T16:48:42;98270.16;;;18.95;40.58
36502;BME280;25393;46.108;3.390;2022-09-21T16:51:27;98304.03;;;19.27;40.53
36502;BME280;25393;46.108;3.390;2022-09-21T16:53:54;98300.84;;;19.37;40.73
36502;BME280;25393;46.108;3.390;2022-09-21T16:56:21;98287.47;;;19.30;40.46
36502;BME280;25393;46.108;3.390;2022-09-21T16:58:48;98308.00;;;19.50;40.47
36502;BME280;25393;46.108;3.390;2022-09-21T17:01:17;98297.88;;;19.52;40.46
36502;BME280;25393;46.108;3.390;2022-09-21T17:03:47;98304.47;;;19.24;39.84